createdAt,value
2019-05-11T00:01:31.864Z,89.77
2019-05-11T00:06:56.567Z,89.56
2019-05-11T00:12:21.224Z,89.89
2019-05-11T00:17:45.177Z,90.28
2019-05-11T00:23:09.360Z,91.13
2019-05-11T00:28:33.179Z,91.90
2019-05-11T00:33:58.098Z,91.87
2019-05-11T00:39:22.286Z,91.85
2019-05-11T00:44:47.340Z,91.29
2019-05-11T00:50:12.486Z,90.70
2019-05-11T00:55:36.597Z,90.75
2019-05-11T01:01:02.499Z,91.12
2019-05-11T01:06:27.052Z,90.75
2019-05-11T01:11:51.537Z,91.40
2019-05-11T01:17:15.683Z,91.10
2019-05-11T01:22:40.525Z,91.31
2019-05-11T01:28:04.002Z,91.44
2019-05-11T01:33:27.826Z,91.76
2019-05-11T01:38:52.428Z,92.73
2019-05-11T01:44:17.531Z,93.33
2019-05-11T01:49:42.282Z,94.24
2019-05-11T01:55:07.561Z,95.26
2019-05-11T02:00:31.501Z,95.35
2019-05-11T02:05:55.466Z,96.01
2019-05-11T02:11:20.053Z,95.82
2019-05-11T02:16:44.344Z,95.95
2019-05-11T02:22:09.017Z,95.91
2019-05-11T02:27:33.531Z,96.21
2019-05-11T02:32:58.562Z,96.49
2019-05-11T02:38:22.459Z,96.91
2019-05-11T02:43:46.130Z,96.99
2019-05-11T02:49:09.691Z,96.92
2019-05-11T02:54:33.981Z,97.23
2019-05-11T02:59:58.615Z,97.36
2019-05-11T03:05:23.270Z,97.60
2019-05-11T03:10:47.731Z,98.04
2019-05-11T03:16:12.582Z,97.91
2019-05-11T03:21:37.161Z,97.77
2019-05-11T03:27:02.200Z,97.80
2019-05-11T03:32:26.075Z,97.78
2019-05-11T03:37:49.867Z,97.95
2019-05-11T03:43:13.814Z,97.89
2019-05-11T03:48:38.262Z,97.22
2019-05-11T03:54:02.369Z,96.75
2019-05-11T03:59:27.023Z,95.99
2019-05-11T04:04:51.328Z,95.27
2019-05-11T04:10:16.922Z,94.59
2019-05-11T04:15:40.981Z,94.22
2019-05-11T04:21:05.605Z,93.55
2019-05-11T04:26:30.269Z,93.13
2019-05-11T04:31:54.635Z,91.94
2019-05-11T04:37:18.947Z,90.62
2019-05-11T04:42:54.824Z,89.20
2019-05-11T04:48:09.622Z,86.70
2019-05-11T04:53:33.625Z,85.08
2019-05-11T04:58:57.987Z,84.56
2019-05-11T05:04:22.412Z,84.68
2019-05-11T05:09:46.728Z,83.66
2019-05-11T05:15:11.740Z,82.00
2019-05-11T05:20:36.343Z,81.17
2019-05-11T05:26:01.479Z,79.92
2019-05-11T05:31:26.447Z,79.83
2019-05-11T05:36:50.391Z,78.92
2019-05-11T05:42:14.544Z,77.98
2019-05-11T05:47:39.286Z,76.15
2019-05-11T05:53:03.781Z,75.12
2019-05-11T05:58:28.275Z,73.80
2019-05-11T06:03:52.584Z,71.91
2019-05-11T06:09:17.260Z,70.73
2019-05-11T06:14:41.096Z,67.26
2019-05-11T06:20:05.831Z,67.10
2019-05-11T06:25:30.842Z,60.56
2019-05-11T06:30:55.614Z,57.21
2019-05-11T06:36:19.458Z,57.27
2019-05-11T06:41:43.596Z,56.89
2019-05-11T06:47:08.409Z,54.59
2019-05-11T06:52:33.118Z,53.01
2019-05-11T06:57:57.616Z,53.64
2019-05-11T07:03:22.159Z,50.66
2019-05-11T07:08:47.068Z,48.02
2019-05-11T07:14:20.620Z,45.85
2019-05-11T07:19:38.022Z,44.80
2019-05-11T07:25:01.769Z,43.62
2019-05-11T07:30:26.557Z,45.33
2019-05-11T07:35:51.423Z,45.40
2019-05-11T07:41:17.656Z,46.00
2019-05-11T07:46:41.449Z,46.29
2019-05-11T07:52:07.633Z,42.87
2019-05-11T07:57:32.068Z,41.70
2019-05-11T08:02:58.469Z,41.96
2019-05-11T08:08:25.192Z,40.93
2019-05-11T08:13:49.169Z,41.31
2019-05-11T08:19:13.489Z,42.85
2019-05-11T08:24:37.948Z,41.86
2019-05-11T08:30:01.734Z,43.09
2019-05-11T08:35:30.932Z,44.71
2019-05-11T08:40:52.330Z,46.09
2019-05-11T08:46:18.558Z,43.03
2019-05-11T08:51:42.386Z,41.74
2019-05-11T08:57:08.141Z,45.19
2019-05-11T09:02:32.221Z,44.87
2019-05-11T09:07:57.763Z,41.21
2019-05-11T09:13:21.822Z,39.63
2019-05-11T09:18:47.951Z,40.21
2019-05-11T09:24:11.426Z,39.80
2019-05-11T09:29:36.079Z,39.69
2019-05-11T09:35:00.714Z,38.78
2019-05-11T09:40:25.254Z,40.15
2019-05-11T09:45:51.959Z,41.22
2019-05-11T09:51:14.848Z,41.11
2019-05-11T09:56:39.934Z,40.97
2019-05-11T10:02:04.567Z,40.58
2019-05-11T10:07:29.021Z,40.05
2019-05-11T10:12:54.275Z,40.67
2019-05-11T10:18:18.935Z,41.64
2019-05-11T10:23:43.482Z,40.26
2019-05-11T10:29:08.317Z,39.76
2019-05-11T10:34:32.201Z,38.63
2019-05-11T10:39:57.804Z,40.53
2019-05-11T10:45:22.965Z,40.25
2019-05-11T10:50:48.398Z,39.13
2019-05-11T10:56:12.158Z,38.10
2019-05-11T11:01:38.092Z,36.51
2019-05-11T11:07:03.467Z,37.56
2019-05-11T11:12:27.995Z,39.28
2019-05-11T11:17:52.242Z,38.91
2019-05-11T11:23:17.754Z,37.90
2019-05-11T11:28:41.991Z,38.58
2019-05-11T11:34:08.190Z,39.86
2019-05-11T11:39:32.911Z,41.60
2019-05-11T11:44:58.760Z,41.96
2019-05-11T11:50:22.794Z,42.74
2019-05-11T11:55:48.181Z,43.21
2019-05-11T12:01:12.564Z,43.34
2019-05-11T12:06:38.478Z,43.70
2019-05-11T12:12:01.880Z,45.26
2019-05-11T12:17:28.575Z,44.65
2019-05-11T12:22:53.322Z,43.78
2019-05-11T12:28:18.415Z,42.97
2019-05-11T12:33:43.383Z,43.59
2019-05-11T12:39:08.760Z,46.47
2019-05-11T12:44:32.801Z,47.05
2019-05-11T12:49:58.603Z,47.16
2019-05-11T12:55:23.753Z,48.34
2019-05-11T13:00:49.304Z,49.14
2019-05-11T13:06:13.721Z,48.68
2019-05-11T13:11:38.110Z,50.15
2019-05-11T13:17:02.070Z,50.32
2019-05-11T13:22:28.847Z,51.12
2019-05-11T13:27:53.233Z,55.10
2019-05-11T13:33:19.085Z,61.42
2019-05-11T13:38:43.560Z,63.42
2019-05-11T13:44:08.003Z,64.61
2019-05-11T13:49:33.392Z,64.43
2019-05-11T13:54:58.539Z,67.05
2019-05-11T14:00:23.321Z,66.97
2019-05-11T14:05:48.307Z,66.04
2019-05-11T14:11:13.020Z,67.26
2019-05-11T14:16:38.038Z,66.14
2019-05-11T14:22:02.655Z,70.27
2019-05-11T14:27:28.158Z,69.15
2019-05-11T14:32:52.788Z,70.61
2019-05-11T14:38:18.543Z,68.64
2019-05-11T14:43:42.260Z,71.32
2019-05-11T14:49:07.914Z,71.56
2019-05-11T14:54:32.439Z,69.79
2019-05-11T14:59:58.594Z,69.63
2019-05-11T15:05:23.522Z,68.58
2019-05-11T15:10:48.824Z,68.70
2019-05-11T15:16:13.988Z,69.96
2019-05-11T15:21:39.172Z,68.29
2019-05-11T15:27:03.736Z,69.32
2019-05-11T15:32:28.646Z,67.96
2019-05-11T15:37:53.441Z,66.80
2019-05-11T15:43:18.140Z,68.76
2019-05-11T15:48:55.568Z,71.50
2019-05-11T15:54:08.042Z,73.58
2019-05-11T15:59:32.562Z,74.38
2019-05-11T16:04:58.233Z,76.08
2019-05-11T16:10:22.160Z,76.63
2019-05-11T16:15:49.236Z,75.93
2019-05-11T16:21:13.924Z,79.96
2019-05-11T16:26:38.715Z,76.86
2019-05-11T16:32:03.497Z,75.79
2019-05-11T16:37:28.927Z,74.90
2019-05-11T16:42:56.171Z,74.86
2019-05-11T16:48:19.147Z,75.02
2019-05-11T16:53:43.858Z,76.16
2019-05-11T16:59:08.250Z,74.71
2019-05-11T17:04:33.016Z,75.63
2019-05-11T17:09:57.915Z,73.62
2019-05-11T17:15:22.404Z,75.16
2019-05-11T17:20:47.140Z,75.79
2019-05-11T17:26:11.591Z,77.58
2019-05-11T17:31:37.984Z,77.75
2019-05-11T17:37:02.835Z,79.44
2019-05-11T17:42:28.526Z,78.51
2019-05-11T17:47:53.699Z,80.33
2019-05-11T17:53:18.454Z,82.00
2019-05-11T17:58:42.980Z,82.34
2019-05-11T18:04:08.161Z,82.12
2019-05-11T18:09:33.359Z,83.09
2019-05-11T18:15:01.400Z,83.40
2019-05-11T18:20:25.416Z,84.94
2019-05-11T18:25:49.784Z,86.16
2019-05-11T18:31:13.998Z,88.09
2019-05-11T18:36:38.251Z,89.42
2019-05-11T18:42:03.130Z,91.23
2019-05-11T18:47:26.982Z,91.18
2019-05-11T18:52:51.129Z,91.21
2019-05-11T18:58:14.744Z,88.85
2019-05-11T19:03:38.617Z,88.50
2019-05-11T19:09:04.403Z,88.72
2019-05-11T19:14:29.365Z,87.36
2019-05-11T19:19:54.074Z,87.40
2019-05-11T19:25:18.841Z,84.23
2019-05-11T19:30:43.637Z,85.48
2019-05-11T19:36:08.193Z,84.72
2019-05-11T19:41:32.822Z,84.22
2019-05-11T19:46:58.167Z,83.73
2019-05-11T19:52:23.741Z,83.96
2019-05-11T19:57:48.540Z,82.30
2019-05-11T20:03:12.288Z,80.49
2019-05-11T20:08:36.400Z,77.51
2019-05-11T20:14:00.832Z,77.57
2019-05-11T20:19:25.332Z,79.25
2019-05-11T20:24:49.015Z,78.95
2019-05-11T20:30:13.052Z,80.56
2019-05-11T20:35:38.416Z,78.51
2019-05-11T20:41:02.921Z,77.24
2019-05-11T20:46:27.727Z,80.03
2019-05-11T20:51:52.135Z,78.59
2019-05-11T20:57:17.970Z,77.89
2019-05-11T21:02:42.523Z,76.46
2019-05-11T21:08:08.298Z,75.24
2019-05-11T21:13:31.963Z,75.27
2019-05-11T21:18:57.995Z,74.26
2019-05-11T21:24:22.959Z,72.67
2019-05-11T21:29:49.107Z,72.80
2019-05-11T21:35:13.112Z,72.95
2019-05-11T21:40:38.281Z,72.54
2019-05-11T21:46:02.931Z,72.41
2019-05-11T21:51:28.604Z,73.29
2019-05-11T21:56:53.279Z,69.61
2019-05-11T22:02:18.453Z,67.39
2019-05-11T22:07:43.219Z,65.29
2019-05-11T22:13:07.974Z,63.20
2019-05-11T22:18:32.637Z,60.36
2019-05-11T22:23:58.485Z,60.65
2019-05-11T22:29:21.850Z,59.03
2019-05-11T22:34:47.953Z,57.41
2019-05-11T22:40:13.150Z,58.08
2019-05-11T22:45:38.264Z,60.23
2019-05-11T22:51:03.432Z,58.55
2019-05-11T22:56:28.543Z,57.29
2019-05-11T23:01:53.246Z,59.65
2019-05-11T23:07:18.574Z,58.10
2019-05-11T23:12:42.731Z,59.34
2019-05-11T23:18:08.595Z,60.76
2019-05-11T23:23:32.770Z,58.69
2019-05-11T23:28:58.094Z,59.85
2019-05-11T23:34:23.682Z,60.21
2019-05-11T23:39:48.017Z,60.32
2019-05-11T23:45:13.071Z,59.75
2019-05-11T23:50:38.649Z,59.64
2019-05-11T23:56:03.433Z,60.07
